weather.gov     
National Weather Service

Terminal Aerodrome Forecast
NWS Homepage
This page is being discontinued on March 12, 2014.
The same data is available at this site. Please update your bookmarks.
Thank you, and we apologize for the inconvenience.
Please send an email to SR-SRH.Webmaster@noaa.gov with any concerns.


Current Version
Previous Version:    01  02  03  04  05  06  07  08  09  10  11  12  13  14  15  16  17  18  19  20  21  22  23  24  25  26  27  28  29  30  
   31  32  33  34  35  
[Printable]
762
FTUS45 KBOI 241120
TAFJER
TAF
KJER 241120Z 2412/2512 13008KT P6SM OVC080
     FM241300 06006KT P6SM VCSH SCT040 OVC060
     FM241500 22010KT P6SM -RA BKN040 OVC060
     FM242000 27015KT P6SM -SHRA SCT050 OVC100
     FM250300 07008KT P6SM -SHRA BKN035 OVC050=


762
FTUS45 KBOI 241120
TAFJER
TAF
KJER 241120Z 2412/2512 13008KT P6SM OVC080
     FM241300 06006KT P6SM VCSH SCT040 OVC060
     FM241500 22010KT P6SM -RA BKN040 OVC060
     FM242000 27015KT P6SM -SHRA SCT050 OVC100
     FM250300 07008KT P6SM -SHRA BKN035 OVC050=




U.S. Dept. of Commerce
NOAA National Weather Service
1325 East West Highway
Silver Spring, MD 20910
E-mail: w-nws.webmaster@noaa.gov
Page last modified: May 16, 2007
NATIONAL WEATHER SERVICE: for Safety, for Work, for Fun - FOR LIFE